sensor_id;sensor_type;location;lat;lon;timestamp;pressure;altitude;pressure_sealevel;temperature;humidity
45285;BME280;31026;43.780;25.948;2023-02-15T00:00:32;102274.81;;;15.74;64.13
45285;BME280;31026;43.780;25.948;2023-02-15T00:03:00;102289.34;;;15.67;64.00
45285;BME280;31026;43.780;25.948;2023-02-15T00:05:30;102291.31;;;15.63;64.00
45285;BME280;31026;43.780;25.948;2023-02-15T00:07:58;102262.94;;;15.62;64.08
45285;BME280;31026;43.780;25.948;2023-02-15T00:10:27;102271.13;;;15.58;63.84
45285;BME280;31026;43.780;25.948;2023-02-15T00:12:55;102280.09;;;15.57;63.99
45285;BME280;31026;43.780;25.948;2023-02-15T00:15:24;102267.94;;;15.51;64.31
45285;BME280;31026;43.780;25.948;2023-02-15T00:17:55;102289.31;;;15.49;64.02
45285;BME280;31026;43.780;25.948;2023-02-15T00:20:25;102283.13;;;15.49;63.93
45285;BME280;31026;43.780;25.948;2023-02-15T00:22:54;102276.94;;;15.48;64.07
45285;BME280;31026;43.780;25.948;2023-02-15T00:25:23;102294.88;;;15.45;64.17
45285;BME280;31026;43.780;25.948;2023-02-15T00:27:51;102294.09;;;15.43;63.93
45285;BME280;31026;43.780;25.948;2023-02-15T00:30:20;102300.34;;;15.42;63.91
45285;BME280;31026;43.780;25.948;2023-02-15T00:32:48;102296.84;;;15.41;63.60
45285;BME280;31026;43.780;25.948;2023-02-15T00:35:20;102301.78;;;15.49;63.76
45285;BME280;31026;43.780;25.948;2023-02-15T00:37:49;102292.00;;;15.86;62.37
45285;BME280;31026;43.780;25.948;2023-02-15T00:40:18;102292.13;;;16.35;60.96
45285;BME280;31026;43.780;25.948;2023-02-15T00:42:47;102277.31;;;16.96;59.31
45285;BME280;31026;43.780;25.948;2023-02-15T00:45:15;102272.97;;;17.41;58.25
45285;BME280;31026;43.780;25.948;2023-02-15T00:47:44;102278.50;;;17.84;57.10
45285;BME280;31026;43.780;25.948;2023-02-15T00:50:16;102288.16;;;18.03;57.02
45285;BME280;31026;43.780;25.948;2023-02-15T00:52:50;102277.22;;;18.06;56.71
45285;BME280;31026;43.780;25.948;2023-02-15T00:55:19;102275.31;;;18.08;56.45
45285;BME280;31026;43.780;25.948;2023-02-15T00:57:47;102279.28;;;18.17;56.40
45285;BME280;31026;43.780;25.948;2023-02-15T01:00:16;102275.47;;;18.21;56.42
45285;BME280;31026;43.780;25.948;2023-02-15T01:02:45;102275.63;;;18.18;56.48
45285;BME280;31026;43.780;25.948;2023-02-15T01:05:14;102274.03;;;18.29;55.97
45285;BME280;31026;43.780;25.948;2023-02-15T01:07:42;102259.78;;;18.29;55.84
45285;BME280;31026;43.780;25.948;2023-02-15T01:10:13;102272.00;;;18.19;56.43
45285;BME280;31026;43.780;25.948;2023-02-15T01:12:41;102279.72;;;17.95;56.66
45285;BME280;31026;43.780;25.948;2023-02-15T01:15:10;102266.44;;;17.77;57.03
45285;BME280;31026;43.780;25.948;2023-02-15T01:17:38;102270.31;;;17.72;57.29
45285;BME280;31026;43.780;25.948;2023-02-15T01:20:07;102278.34;;;17.72;57.27
45285;BME280;31026;43.780;25.948;2023-02-15T01:22:36;102263.34;;;17.69;57.18
45285;BME280;31026;43.780;25.948;2023-02-15T01:25:05;102276.63;;;17.70;57.06
45285;BME280;31026;43.780;25.948;2023-02-15T01:27:36;102279.22;;;17.72;57.21
45285;BME280;31026;43.780;25.948;2023-02-15T01:30:06;102273.84;;;17.72;57.19
45285;BME280;31026;43.780;25.948;2023-02-15T01:32:35;102270.41;;;17.70;57.12
45285;BME280;31026;43.780;25.948;2023-02-15T01:35:03;102264.13;;;17.71;57.01
45285;BME280;31026;43.780;25.948;2023-02-15T01:37:32;102264.63;;;17.78;57.06
45285;BME280;31026;43.780;25.948;2023-02-15T01:40:01;102275.91;;;17.83;57.04
45285;BME280;31026;43.780;25.948;2023-02-15T01:42:30;102275.91;;;17.83;56.48
45285;BME280;31026;43.780;25.948;2023-02-15T01:45:03;102277.72;;;17.82;56.57
45285;BME280;31026;43.780;25.948;2023-02-15T01:47:33;102267.91;;;17.83;56.67
45285;BME280;31026;43.780;25.948;2023-02-15T01:50:08;102282.84;;;17.87;56.38
45285;BME280;31026;43.780;25.948;2023-02-15T01:52:39;102277.66;;;17.84;56.55
45285;BME280;31026;43.780;25.948;2023-02-15T01:55:09;102286.53;;;17.84;56.34
45285;BME280;31026;43.780;25.948;2023-02-15T01:57:39;102276.72;;;17.85;56.39
45285;BME280;31026;43.780;25.948;2023-02-15T02:00:11;102283.06;;;17.82;56.32
45285;BME280;31026;43.780;25.948;2023-02-15T02:02:41;102276.94;;;17.80;56.38
45285;BME280;31026;43.780;25.948;2023-02-15T02:05:12;102291.44;;;17.76;56.95
45285;BME280;31026;43.780;25.948;2023-02-15T02:07:41;102277.06;;;17.79;56.46
45285;BME280;31026;43.780;25.948;2023-02-15T02:10:10;102280.06;;;17.88;56.08
45285;BME280;31026;43.780;25.948;2023-02-15T02:12:40;102287.31;;;17.86;56.21
45285;BME280;31026;43.780;25.948;2023-02-15T02:15:13;102284.56;;;17.88;56.40
45285;BME280;31026;43.780;25.948;2023-02-15T02:17:44;102277.28;;;17.90;55.99
45285;BME280;31026;43.780;25.948;2023-02-15T02:20:17;102280.16;;;17.87;56.45
45285;BME280;31026;43.780;25.948;2023-02-15T02:28:35;102283.31;;;17.94;56.18
45285;BME280;31026;43.780;25.948;2023-02-15T02:33:59;102290.53;;;17.77;56.67
45285;BME280;31026;43.780;25.948;2023-02-15T02:36:31;102287.56;;;17.20;57.41
45285;BME280;31026;43.780;25.948;2023-02-15T02:39:06;102312.53;;;16.87;58.02
45285;BME280;31026;43.780;25.948;2023-02-15T02:41:37;102316.19;;;16.68;59.06
45285;BME280;31026;43.780;25.948;2023-02-15T02:44:12;102326.25;;;16.63;59.44
45285;BME280;31026;43.780;25.948;2023-02-15T02:46:46;102324.22;;;16.51;59.78
45285;BME280;31026;43.780;25.948;2023-02-15T02:49:20;102321.88;;;16.45;60.00
45285;BME280;31026;43.780;25.948;2023-02-15T02:51:57;102318.44;;;16.94;58.30
45285;BME280;31026;43.780;25.948;2023-02-15T02:54:26;102327.50;;;16.74;58.99
45285;BME280;31026;43.780;25.948;2023-02-15T02:56:56;102341.34;;;16.47;59.59
45285;BME280;31026;43.780;25.948;2023-02-15T02:59:29;102338.94;;;16.42;59.26
45285;BME280;31026;43.780;25.948;2023-02-15T03:02:00;102322.25;;;17.21;58.06
45285;BME280;31026;43.780;25.948;2023-02-15T03:04:34;102321.31;;;17.84;56.52
45285;BME280;31026;43.780;25.948;2023-02-15T03:07:04;102303.31;;;18.61;54.51
45285;BME280;31026;43.780;25.948;2023-02-15T03:09:35;102310.66;;;19.15;52.95
45285;BME280;31026;43.780;25.948;2023-02-15T03:12:09;102309.94;;;19.40;52.54
45285;BME280;31026;43.780;25.948;2023-02-15T03:14:38;102324.63;;;19.35;52.62
45285;BME280;31026;43.780;25.948;2023-02-15T03:17:09;102317.41;;;19.35;52.79
45285;BME280;31026;43.780;25.948;2023-02-15T03:19:42;102329.22;;;19.33;52.85
45285;BME280;31026;43.780;25.948;2023-02-15T03:22:13;102320.72;;;19.26;53.04
45285;BME280;31026;43.780;25.948;2023-02-15T03:24:46;102329.78;;;19.38;52.89
45285;BME280;31026;43.780;25.948;2023-02-15T03:27:15;102321.75;;;19.38;52.75
45285;BME280;31026;43.780;25.948;2023-02-15T03:29:45;102336.56;;;19.43;52.54
45285;BME280;31026;43.780;25.948;2023-02-15T03:32:14;102343.06;;;19.54;52.50
45285;BME280;31026;43.780;25.948;2023-02-15T03:34:46;102341.91;;;19.43;52.82
45285;BME280;31026;43.780;25.948;2023-02-15T03:37:17;102312.41;;;19.43;52.68
45285;BME280;31026;43.780;25.948;2023-02-15T03:39:50;102320.72;;;19.53;52.61
45285;BME280;31026;43.780;25.948;2023-02-15T03:42:23;102327.50;;;19.59;52.54
45285;BME280;31026;43.780;25.948;2023-02-15T03:44:54;102335.97;;;19.53;52.59
45285;BME280;31026;43.780;25.948;2023-02-15T03:47:26;102337.47;;;19.57;52.27
45285;BME280;31026;43.780;25.948;2023-02-15T03:49:59;102328.78;;;19.53;52.16
45285;BME280;31026;43.780;25.948;2023-02-15T03:52:28;102330.00;;;19.62;52.65
45285;BME280;31026;43.780;25.948;2023-02-15T03:54:55;102327.59;;;19.57;52.39
45285;BME280;31026;43.780;25.948;2023-02-15T03:57:25;102346.38;;;19.57;52.53
45285;BME280;31026;43.780;25.948;2023-02-15T04:00:09;102336.53;;;19.58;52.23
45285;BME280;31026;43.780;25.948;2023-02-15T04:02:55;102334.88;;;19.55;52.45
45285;BME280;31026;43.780;25.948;2023-02-15T04:05:28;102350.72;;;19.60;52.40
45285;BME280;31026;43.780;25.948;2023-02-15T04:07:57;102348.53;;;19.52;52.36
45285;BME280;31026;43.780;25.948;2023-02-15T04:10:26;102347.16;;;19.59;52.44
45285;BME280;31026;43.780;25.948;2023-02-15T04:13:06;102341.91;;;19.58;52.59
45285;BME280;31026;43.780;25.948;2023-02-15T04:15:35;102344.69;;;19.56;52.53
45285;BME280;31026;43.780;25.948;2023-02-15T04:18:15;102346.97;;;19.62;52.55
45285;BME280;31026;43.780;25.948;2023-02-15T04:20:46;102350.59;;;19.61;52.41
45285;BME280;31026;43.780;25.948;2023-02-15T04:23:27;102352.50;;;19.59;52.39
45285;BME280;31026;43.780;25.948;2023-02-15T04:26:07;102340.06;;;19.58;52.62
45285;BME280;31026;43.780;25.948;2023-02-15T04:28:36;102334.03;;;19.55;52.40
45285;BME280;31026;43.780;25.948;2023-02-15T04:31:05;102349.94;;;19.58;52.66
45285;BME280;31026;43.780;25.948;2023-02-15T04:33:34;102353.84;;;19.66;52.24
45285;BME280;31026;43.780;25.948;2023-02-15T04:36:05;102366.78;;;19.74;51.99
45285;BME280;31026;43.780;25.948;2023-02-15T04:38:34;102371.94;;;19.77;51.82
45285;BME280;31026;43.780;25.948;2023-02-15T04:41:02;102372.38;;;19.01;53.45
45285;BME280;31026;43.780;25.948;2023-02-15T04:43:31;102365.28;;;18.26;54.36
45285;BME280;31026;43.780;25.948;2023-02-15T04:45:59;102389.00;;;17.86;56.02
45285;BME280;31026;43.780;25.948;2023-02-15T04:48:28;102382.56;;;17.59;57.55
45285;BME280;31026;43.780;25.948;2023-02-15T04:50:56;102387.28;;;17.54;58.31
45285;BME280;31026;43.780;25.948;2023-02-15T04:53:27;102395.56;;;17.97;57.28
45285;BME280;31026;43.780;25.948;2023-02-15T04:55:56;102383.16;;;18.71;56.00
45285;BME280;31026;43.780;25.948;2023-02-15T04:58:24;102377.03;;;19.26;54.14
45285;BME280;31026;43.780;25.948;2023-02-15T05:00:54;102395.41;;;19.46;54.09
45285;BME280;31026;43.780;25.948;2023-02-15T05:03:23;102388.88;;;19.51;53.91
45285;BME280;31026;43.780;25.948;2023-02-15T05:05:52;102382.06;;;19.45;53.91
45285;BME280;31026;43.780;25.948;2023-02-15T05:08:20;102369.16;;;19.37;54.22
45285;BME280;31026;43.780;25.948;2023-02-15T05:10:51;102389.09;;;19.33;54.25
45285;BME280;31026;43.780;25.948;2023-02-15T05:13:20;102399.44;;;19.25;54.19
45285;BME280;31026;43.780;25.948;2023-02-15T05:15:49;102396.31;;;19.18;54.49
45285;BME280;31026;43.780;25.948;2023-02-15T05:18:18;102395.69;;;19.27;54.29
45285;BME280;31026;43.780;25.948;2023-02-15T05:20:47;102392.53;;;19.35;54.26
45285;BME280;31026;43.780;25.948;2023-02-15T05:23:15;102402.88;;;19.41;53.94
45285;BME280;31026;43.780;25.948;2023-02-15T05:25:46;102397.09;;;19.47;53.61
45285;BME280;31026;43.780;25.948;2023-02-15T05:28:30;102403.53;;;19.45;53.71
45285;BME280;31026;43.780;25.948;2023-02-15T05:31:00;102414.72;;;19.52;53.86
45285;BME280;31026;43.780;25.948;2023-02-15T05:33:30;102410.81;;;19.43;53.68
45285;BME280;31026;43.780;25.948;2023-02-15T05:35:59;102411.69;;;19.29;53.41
45285;BME280;31026;43.780;25.948;2023-02-15T05:38:27;102423.19;;;19.31;53.72
45285;BME280;31026;43.780;25.948;2023-02-15T05:40:56;102421.63;;;19.41;53.33
45285;BME280;31026;43.780;25.948;2023-02-15T05:43:24;102424.16;;;19.44;53.37
45285;BME280;31026;43.780;25.948;2023-02-15T05:45:56;102423.94;;;19.47;53.05
45285;BME280;31026;43.780;25.948;2023-02-15T05:48:25;102428.06;;;19.39;53.08
45285;BME280;31026;43.780;25.948;2023-02-15T05:50:57;102437.19;;;19.22;53.47
45285;BME280;31026;43.780;25.948;2023-02-15T05:53:26;102446.31;;;18.75;54.27
45285;BME280;31026;43.780;25.948;2023-02-15T05:55:54;102458.31;;;18.83;54.65
45285;BME280;31026;43.780;25.948;2023-02-15T05:58:24;102437.56;;;19.01;54.56
45285;BME280;31026;43.780;25.948;2023-02-15T06:00:55;102445.34;;;19.20;54.56
45285;BME280;31026;43.780;25.948;2023-02-15T06:03:24;102463.50;;;19.30;55.30
45285;BME280;31026;43.780;25.948;2023-02-15T06:05:53;102444.47;;;19.34;56.81
45285;BME280;31026;43.780;25.948;2023-02-15T06:08:22;102455.47;;;19.44;57.26
45285;BME280;31026;43.780;25.948;2023-02-15T06:10:50;102452.78;;;19.58;57.66
45285;BME280;31026;43.780;25.948;2023-02-15T06:13:19;102454.88;;;19.53;58.14
45285;BME280;31026;43.780;25.948;2023-02-15T06:15:47;102455.78;;;19.25;58.59
45285;BME280;31026;43.780;25.948;2023-02-15T06:18:19;102445.13;;;19.09;59.06
45285;BME280;31026;43.780;25.948;2023-02-15T06:20:48;102457.88;;;19.20;58.84
45285;BME280;31026;43.780;25.948;2023-02-15T06:23:17;102453.84;;;19.13;59.10
45285;BME280;31026;43.780;25.948;2023-02-15T06:25:45;102462.00;;;19.40;58.69
45285;BME280;31026;43.780;25.948;2023-02-15T06:28:14;102457.75;;;19.64;58.19
45285;BME280;31026;43.780;25.948;2023-02-15T06:30:43;102450.75;;;19.76;57.57
45285;BME280;31026;43.780;25.948;2023-02-15T06:33:11;102451.13;;;19.70;57.94
45285;BME280;31026;43.780;25.948;2023-02-15T06:35:43;102466.97;;;19.60;58.06
45285;BME280;31026;43.780;25.948;2023-02-15T06:38:13;102461.34;;;19.36;58.81
45285;BME280;31026;43.780;25.948;2023-02-15T06:40:42;102462.84;;;19.12;59.13
45285;BME280;31026;43.780;25.948;2023-02-15T06:43:11;102463.44;;;19.17;58.77
45285;BME280;31026;43.780;25.948;2023-02-15T06:45:39;102459.97;;;19.29;58.71
45285;BME280;31026;43.780;25.948;2023-02-15T06:48:08;102485.25;;;19.39;58.53
45285;BME280;31026;43.780;25.948;2023-02-15T06:50:37;102462.06;;;19.67;57.69
45285;BME280;31026;43.780;25.948;2023-02-15T06:53:09;102482.56;;;19.82;57.47
45285;BME280;31026;43.780;25.948;2023-02-15T06:55:37;102466.47;;;19.82;57.11
45285;BME280;31026;43.780;25.948;2023-02-15T06:58:06;102451.63;;;19.62;57.59
45285;BME280;31026;43.780;25.948;2023-02-15T07:00:36;102445.97;;;19.53;57.72
45285;BME280;31026;43.780;25.948;2023-02-15T07:03:04;102453.84;;;19.41;57.94
45285;BME280;31026;43.780;25.948;2023-02-15T07:05:33;102453.56;;;19.46;57.63
45285;BME280;31026;43.780;25.948;2023-02-15T07:08:02;102455.28;;;19.47;57.99
45285;BME280;31026;43.780;25.948;2023-02-15T07:10:35;102456.13;;;19.62;57.46
45285;BME280;31026;43.780;25.948;2023-02-15T07:13:03;102458.19;;;19.85;56.59
45285;BME280;31026;43.780;25.948;2023-02-15T07:15:29;102463.22;;;19.77;56.82
45285;BME280;31026;43.780;25.948;2023-02-15T07:17:58;102462.25;;;19.64;56.76
45285;BME280;31026;43.780;25.948;2023-02-15T07:20:27;102461.78;;;19.57;57.42
45285;BME280;31026;43.780;25.948;2023-02-15T07:22:55;102456.63;;;19.54;57.25
45285;BME280;31026;43.780;25.948;2023-02-15T07:25:23;102458.63;;;19.51;57.16
45285;BME280;31026;43.780;25.948;2023-02-15T07:27:57;102457.31;;;19.29;57.74
45285;BME280;31026;43.780;25.948;2023-02-15T07:30:27;102435.44;;;19.35;57.57
45285;BME280;31026;43.780;25.948;2023-02-15T07:32:56;102454.47;;;19.59;57.22
45285;BME280;31026;43.780;25.948;2023-02-15T07:35:37;102427.16;;;19.81;56.23
45285;BME280;31026;43.780;25.948;2023-02-15T07:38:06;102442.16;;;19.98;55.73
45285;BME280;31026;43.780;25.948;2023-02-15T07:40:35;102436.84;;;19.84;56.07
45285;BME280;31026;43.780;25.948;2023-02-15T07:43:06;102438.41;;;19.74;56.23
45285;BME280;31026;43.780;25.948;2023-02-15T07:45:34;102436.19;;;19.66;56.81
45285;BME280;31026;43.780;25.948;2023-02-15T07:48:03;102430.06;;;19.64;56.35
45285;BME280;31026;43.780;25.948;2023-02-15T07:50:31;102438.88;;;19.66;56.50
45285;BME280;31026;43.780;25.948;2023-02-15T07:53:00;102436.75;;;19.71;56.29
45285;BME280;31026;43.780;25.948;2023-02-15T07:55:30;102439.72;;;19.66;56.60
45285;BME280;31026;43.780;25.948;2023-02-15T07:57:58;102432.44;;;19.68;56.94
45285;BME280;31026;43.780;25.948;2023-02-15T08:00:30;102424.88;;;19.75;56.79
45285;BME280;31026;43.780;25.948;2023-02-15T08:03:19;102440.03;;;19.76;56.55
45285;BME280;31026;43.780;25.948;2023-02-15T08:05:54;102449.28;;;19.71;56.60
45285;BME280;31026;43.780;25.948;2023-02-15T08:08:24;102440.56;;;19.67;56.45
45285;BME280;31026;43.780;25.948;2023-02-15T08:10:59;102433.31;;;19.55;56.16
45285;BME280;31026;43.780;25.948;2023-02-15T08:13:42;102437.34;;;19.62;56.17
45285;BME280;31026;43.780;25.948;2023-02-15T08:16:22;102421.25;;;19.62;56.45
45285;BME280;31026;43.780;25.948;2023-02-15T08:18:51;102429.66;;;19.70;56.03
45285;BME280;31026;43.780;25.948;2023-02-15T08:21:19;102412.41;;;19.74;56.26
45285;BME280;31026;43.780;25.948;2023-02-15T08:23:49;102439.41;;;19.85;55.97
45285;BME280;31026;43.780;25.948;2023-02-15T08:26:18;102434.25;;;19.82;56.30
45285;BME280;31026;43.780;25.948;2023-02-15T08:28:46;102436.63;;;19.87;56.17
45285;BME280;31026;43.780;25.948;2023-02-15T08:31:16;102435.78;;;19.86;56.17
45285;BME280;31026;43.780;25.948;2023-02-15T08:33:48;102425.69;;;19.90;56.30
45285;BME280;31026;43.780;25.948;2023-02-15T08:36:18;102435.38;;;19.93;56.32
45285;BME280;31026;43.780;25.948;2023-02-15T08:38:50;102436.34;;;19.92;56.28
45285;BME280;31026;43.780;25.948;2023-02-15T08:41:19;102424.44;;;19.96;56.14
45285;BME280;31026;43.780;25.948;2023-02-15T08:43:48;102412.19;;;19.92;56.07
45285;BME280;31026;43.780;25.948;2023-02-15T08:46:19;102420.09;;;19.93;55.83
45285;BME280;31026;43.780;25.948;2023-02-15T08:48:51;102415.22;;;20.00;56.07
45285;BME280;31026;43.780;25.948;2023-02-15T08:51:20;102429.09;;;20.06;55.80
45285;BME280;31026;43.780;25.948;2023-02-15T08:53:49;102424.56;;;20.07;55.58
45285;BME280;31026;43.780;25.948;2023-02-15T08:56:19;102430.06;;;20.05;55.82
45285;BME280;31026;43.780;25.948;2023-02-15T08:58:48;102426.50;;;20.05;55.78
45285;BME280;31026;43.780;25.948;2023-02-15T09:01:18;102428.44;;;18.45;48.28
45285;BME280;31026;43.780;25.948;2023-02-15T09:03:54;102431.78;;;18.18;53.07
45285;BME280;31026;43.780;25.948;2023-02-15T09:06:23;102445.56;;;17.15;46.83
45285;BME280;31026;43.780;25.948;2023-02-15T09:08:52;102433.03;;;17.49;53.70
45285;BME280;31026;43.780;25.948;2023-02-15T09:11:21;102419.66;;;17.81;53.47
45285;BME280;31026;43.780;25.948;2023-02-15T09:13:51;102427.84;;;17.94;52.74
45285;BME280;31026;43.780;25.948;2023-02-15T09:16:21;102425.25;;;18.08;53.18
45285;BME280;31026;43.780;25.948;2023-02-15T09:18:52;102423.28;;;18.86;52.33
45285;BME280;31026;43.780;25.948;2023-02-15T09:21:21;102418.06;;;19.55;51.15
45285;BME280;31026;43.780;25.948;2023-02-15T09:23:50;102419.50;;;20.02;50.36
45285;BME280;31026;43.780;25.948;2023-02-15T09:26:19;102423.50;;;19.82;50.40
45285;BME280;31026;43.780;25.948;2023-02-15T09:28:51;102425.22;;;19.13;51.23
45285;BME280;31026;43.780;25.948;2023-02-15T09:31:21;102423.38;;;18.99;51.60
45285;BME280;31026;43.780;25.948;2023-02-15T09:33:54;102429.06;;;19.38;50.87
45285;BME280;31026;43.780;25.948;2023-02-15T09:36:24;102427.38;;;19.64;49.39
45285;BME280;31026;43.780;25.948;2023-02-15T09:38:54;102421.00;;;19.79;49.24
45285;BME280;31026;43.780;25.948;2023-02-15T09:41:29;102413.69;;;19.96;49.27
45285;BME280;31026;43.780;25.948;2023-02-15T09:44:02;102422.69;;;19.95;49.19
45285;BME280;31026;43.780;25.948;2023-02-15T09:46:40;102427.66;;;20.01;49.22
45285;BME280;31026;43.780;25.948;2023-02-15T09:49:19;102409.19;;;19.96;49.41
45285;BME280;31026;43.780;25.948;2023-02-15T09:52:03;102409.53;;;20.04;49.36
45285;BME280;31026;43.780;25.948;2023-02-15T09:54:41;102402.97;;;19.96;49.55
45285;BME280;31026;43.780;25.948;2023-02-15T09:57:13;102404.56;;;19.98;49.59
45285;BME280;31026;43.780;25.948;2023-02-15T09:59:46;102402.28;;;19.92;49.48
45285;BME280;31026;43.780;25.948;2023-02-15T10:02:22;102402.03;;;19.82;49.04
45285;BME280;31026;43.780;25.948;2023-02-15T10:04:59;102409.25;;;19.82;49.44
45285;BME280;31026;43.780;25.948;2023-02-15T10:07:35;102401.94;;;19.84;49.33
45285;BME280;31026;43.780;25.948;2023-02-15T10:10:12;102406.06;;;19.75;49.87
45285;BME280;31026;43.780;25.948;2023-02-15T10:13:06;102380.81;;;19.51;49.25
45285;BME280;31026;43.780;25.948;2023-02-15T10:15:43;102386.00;;;19.54;49.63
45285;BME280;31026;43.780;25.948;2023-02-15T10:21:11;102368.88;;;19.69;49.94
45285;BME280;31026;43.780;25.948;2023-02-15T10:24:00;102373.06;;;18.90;47.75
45285;BME280;31026;43.780;25.948;2023-02-15T10:26:36;102370.84;;;18.52;46.49
45285;BME280;31026;43.780;25.948;2023-02-15T10:29:12;102373.59;;;18.95;47.00
45285;BME280;31026;43.780;25.948;2023-02-15T10:31:46;102367.75;;;19.17;47.13
45285;BME280;31026;43.780;25.948;2023-02-15T10:34:16;102375.09;;;19.42;46.93
45285;BME280;31026;43.780;25.948;2023-02-15T10:36:55;102382.78;;;19.61;46.74
45285;BME280;31026;43.780;25.948;2023-02-15T10:39:30;102364.28;;;19.71;47.19
45285;BME280;31026;43.780;25.948;2023-02-15T10:42:05;102359.94;;;19.83;47.58
45285;BME280;31026;43.780;25.948;2023-02-15T10:44:41;102355.44;;;19.83;47.67
45285;BME280;31026;43.780;25.948;2023-02-15T10:47:23;102355.03;;;19.90;47.73
45285;BME280;31026;43.780;25.948;2023-02-15T10:52:46;102365.78;;;19.90;48.54
45285;BME280;31026;43.780;25.948;2023-02-15T10:55:21;102359.75;;;19.44;49.62
45285;BME280;31026;43.780;25.948;2023-02-15T10:57:55;102368.63;;;18.89;50.67
45285;BME280;31026;43.780;25.948;2023-02-15T11:00:26;102348.88;;;18.61;51.54
45285;BME280;31026;43.780;25.948;2023-02-15T11:03:05;102354.59;;;19.27;50.37
45285;BME280;31026;43.780;25.948;2023-02-15T11:05:41;102348.00;;;19.74;49.79
45285;BME280;31026;43.780;25.948;2023-02-15T11:08:16;102343.78;;;19.70;50.01
45285;BME280;31026;43.780;25.948;2023-02-15T11:10:46;102366.13;;;19.15;51.12
45285;BME280;31026;43.780;25.948;2023-02-15T11:13:17;102355.97;;;18.77;52.02
45285;BME280;31026;43.780;25.948;2023-02-15T11:15:47;102349.28;;;18.98;52.06
45285;BME280;31026;43.780;25.948;2023-02-15T11:18:22;102354.66;;;19.54;50.60
45285;BME280;31026;43.780;25.948;2023-02-15T11:20:53;102340.19;;;19.84;50.13
45285;BME280;31026;43.780;25.948;2023-02-15T11:23:25;102341.88;;;19.31;51.19
45285;BME280;31026;43.780;25.948;2023-02-15T11:25:56;102342.31;;;18.81;52.38
45285;BME280;31026;43.780;25.948;2023-02-15T11:28:27;102346.72;;;18.82;52.59
45285;BME280;31026;43.780;25.948;2023-02-15T11:31:00;102323.63;;;19.36;51.53
45285;BME280;31026;43.780;25.948;2023-02-15T11:33:30;102315.06;;;19.85;50.24
45285;BME280;31026;43.780;25.948;2023-02-15T11:36:03;102320.97;;;19.36;51.33
45285;BME280;31026;43.780;25.948;2023-02-15T11:38:38;102314.25;;;18.87;52.47
45285;BME280;31026;43.780;25.948;2023-02-15T11:41:09;102313.50;;;18.85;52.67
45285;BME280;31026;43.780;25.948;2023-02-15T11:43:39;102313.22;;;19.31;51.92
45285;BME280;31026;43.780;25.948;2023-02-15T11:46:10;102309.91;;;19.82;50.85
45285;BME280;31026;43.780;25.948;2023-02-15T11:48:40;102306.94;;;19.45;51.99
45285;BME280;31026;43.780;25.948;2023-02-15T11:51:09;102304.13;;;18.92;53.01
45285;BME280;31026;43.780;25.948;2023-02-15T11:53:44;102313.25;;;18.74;53.66
45285;BME280;31026;43.780;25.948;2023-02-15T11:56:14;102298.88;;;19.18;52.60
45285;BME280;31026;43.780;25.948;2023-02-15T11:58:44;102288.56;;;19.66;51.71
45285;BME280;31026;43.780;25.948;2023-02-15T12:01:14;102308.56;;;19.47;51.91
45285;BME280;31026;43.780;25.948;2023-02-15T12:03:45;102289.75;;;18.93;53.54
45285;BME280;31026;43.780;25.948;2023-02-15T12:06:16;102298.72;;;18.78;53.38
45285;BME280;31026;43.780;25.948;2023-02-15T12:08:51;102292.66;;;19.17;52.70
45285;BME280;31026;43.780;25.948;2023-02-15T12:11:22;102280.91;;;19.74;51.62
45285;BME280;31026;43.780;25.948;2023-02-15T12:13:54;102292.38;;;19.49;52.05
45285;BME280;31026;43.780;25.948;2023-02-15T12:16:23;102290.41;;;18.97;53.79
45285;BME280;31026;43.780;25.948;2023-02-15T12:18:53;102283.78;;;18.74;54.11
45285;BME280;31026;43.780;25.948;2023-02-15T12:21:27;102270.44;;;19.15;53.13
45285;BME280;31026;43.780;25.948;2023-02-15T12:24:00;102274.56;;;19.75;51.75
45285;BME280;31026;43.780;25.948;2023-02-15T12:26:32;102271.97;;;19.46;52.49
45285;BME280;31026;43.780;25.948;2023-02-15T12:29:06;102284.38;;;18.93;53.56
45285;BME280;31026;43.780;25.948;2023-02-15T12:31:36;102278.53;;;18.72;54.23
45285;BME280;31026;43.780;25.948;2023-02-15T12:34:08;102273.44;;;19.11;53.60
45285;BME280;31026;43.780;25.948;2023-02-15T12:36:40;102276.38;;;19.75;52.20
45285;BME280;31026;43.780;25.948;2023-02-15T12:39:23;102282.91;;;19.43;52.95
45285;BME280;31026;43.780;25.948;2023-02-15T12:44:39;102259.31;;;18.80;54.50
45285;BME280;31026;43.780;25.948;2023-02-15T12:47:21;102280.69;;;19.23;52.64
45285;BME280;31026;43.780;25.948;2023-02-15T12:52:41;102276.91;;;18.69;53.14
45285;BME280;31026;43.780;25.948;2023-02-15T12:55:17;102265.53;;;18.37;54.13
45285;BME280;31026;43.780;25.948;2023-02-15T12:57:47;102265.25;;;18.85;52.79
45285;BME280;31026;43.780;25.948;2023-02-15T13:00:26;102271.28;;;19.30;51.72
45285;BME280;31026;43.780;25.948;2023-02-15T13:02:57;102264.47;;;19.52;50.83
45285;BME280;31026;43.780;25.948;2023-02-15T13:05:30;102262.84;;;19.49;51.09
45285;BME280;31026;43.780;25.948;2023-02-15T13:08:00;102272.31;;;18.86;52.53
45285;BME280;31026;43.780;25.948;2023-02-15T13:10:33;102266.19;;;18.55;53.28
45285;BME280;31026;43.780;25.948;2023-02-15T13:13:08;102273.47;;;18.96;53.08
45285;BME280;31026;43.780;25.948;2023-02-15T13:15:39;102265.09;;;19.42;52.23
45285;BME280;31026;43.780;25.948;2023-02-15T13:18:10;102244.13;;;19.07;53.00
45285;BME280;31026;43.780;25.948;2023-02-15T13:20:41;102261.59;;;18.72;54.12